TULLOCH (TUL)

Elevation: 515' · STANISLAUS R basin · Operator: US Bureau of Reclamation

Provisional data, subject to change.
Query executed Thursday at 16:13:46   clock

Select a sensor type for a plot of data.
Note: Reservoir Flows are daily averages.

Earlier

Date RES ELE    STORAGE    RES CHG    TOC STO    OUTFLOW    INFLOW    EVAP    RIV REL    SPILL    DIS PWR   
 FEET   AF   AF   AF   CFS   CFS   CFS   CFS   CFS   CFS  
03/25/2014 500.47 55812 893 57700 1655 2113 8 0 0 1655
03/26/2014 501.34 56762 950 57800 1636 2119 4 0 0 1636
03/27/2014 501.97 57457 695 58000 1420 1772 2 0 0 1420
03/28/2014 502.28 57804 347 58100 1386 1564 3 0 0 1386
03/29/2014 502.21 57725 -79 58200 1344 1308 4 0 0 1344
03/30/2014 502.07 57568 -157 58400 1151 1101 29 0 0 1151
03/31/2014 502.65 58218 650 58500 1101 1436 7 0 0 1101
04/01/2014 502.07 57568 -650 58700 1084 760 4 0 0 1084
04/02/2014 502.37 57904 336 58800 1071 1244 4 0 0 1071
04/03/2014 503.21 58849 945 58900 1064 1545 5 0 0 1064
04/04/2014 502.89 58487 -362 59100 977 800 6 0 0 977
04/05/2014 501.90 57380 -1107 59200 984 426 0 0 0 984
04/06/2014 502.23 57748 368 59400 987 1180 7 0 0 987
04/07/2014 503.46 59134 1386 59500 905 1610 6 0 0 905
04/08/2014 502.84 58431 -703 59600 1006 661 9 0 0 1006
04/09/2014 502.98 58588 157 59800 1272 1360 9 0 0 1272
04/10/2014 502.90 58498 -90 59900 1401 1364 8 0 0 1401
04/11/2014 502.89 58487 -11 60100 1498 1503 11 0 0 1498
04/12/2014 502.62 58184 -303 60200 1767 1621 7 0 0 1767
04/13/2014 502.13 57636 -548 60300 1931 1663 8 0 0 1931
04/14/2014 504.15 59924 2288 60500 3044 4206 8 0 647 2397
04/15/2014 503.93 59670 -254 60600 3869 3751 10 0 1375 2494
04/16/2014 504.35 60155 485 60800 3748 4002 9 47 1219 2482
04/17/2014 504.33 60132 -23 60900 3752 3750 10 90 1167 2495
04/18/2014 504.09 59854 -278 61000 3697 3566 9 64 1158 2475
04/19/2014 504.24 60028 174 61200 3688 3786 10 83 1111 2494
04/20/2014 504.33 60132 104 61300 3620 3681 9 40 1086 2494
04/21/2014 504.30 60097 -35 61400 3570 3562 10 32 1044 2494
04/22/2014 504.58 60421 324 61600 3543 3715 9 34 1009 2500
04/23/2014 504.16 59935 -486 61700 3602 3364 7 75 1023 2504
04/24/2014 -- -- -- -- -- -- -- -- -- --

Later | Latest

Warning! This data is preliminary and subject to revision.

Download Data Now Download Data Now | Show TUL Map | Plot TUL Data | 1 Month TUL Data | Real-Time TUL Data | TUL Info